Time;durP1;ratioP1;P1;durP2;ratioP2;P2;SDS_P1;SDS_P2;PMS_P1;PMS_P2;Temp;Humidity;BMP_temperature;BMP_pressure;BME280_temperature;BME280_humidity;BME280_pressure;Samples;Min_cycle;Max_cycle;Signal;HPM_P1;HPM_P2
2023/10/21 00:00:05;;;;;;;40.80;5.80;;;24.90;99.90;;;;;;5115413;28;20067;-68
2023/10/21 00:03:15;;;;;;;41.72;5.45;;;24.80;99.90;;;;;;5115175;28;20050;-67
2023/10/21 00:06:19;;;;;;;32.65;4.57;;;24.80;99.90;;;;;;5114358;28;20221;-67
2023/10/21 00:09:23;;;;;;;36.22;6.57;;;24.80;99.90;;;;;;5115355;28;20050;-67
2023/10/21 00:12:27;;;;;;;34.25;5.55;;;24.70;99.90;;;;;;5114982;28;20047;-67
2023/10/21 00:15:31;;;;;;;35.20;5.90;;;24.80;99.90;;;;;;5115056;28;20046;-67
2023/10/21 00:18:34;;;;;;;31.00;5.53;;;24.70;99.90;;;;;;5114848;28;20038;-68
2023/10/21 00:21:39;;;;;;;39.50;5.88;;;24.70;99.90;;;;;;5115073;28;20034;-67
2023/10/21 00:24:43;;;;;;;41.42;6.05;;;24.60;99.90;;;;;;5114738;28;20038;-67
2023/10/21 00:27:48;;;;;;;31.40;5.88;;;24.70;99.90;;;;;;5114628;28;20058;-67
2023/10/21 00:30:52;;;;;;;42.17;5.55;;;24.70;99.90;;;;;;5114614;28;20034;-66
2023/10/21 00:33:56;;;;;;;44.25;6.80;;;24.70;99.90;;;;;;5114858;28;20047;-67
2023/10/21 00:37:00;;;;;;;40.45;6.15;;;24.70;99.90;;;;;;5114726;28;20055;-66
2023/10/21 00:40:06;;;;;;;41.97;5.70;;;24.70;99.90;;;;;;5114686;28;20046;-67
2023/10/21 00:43:10;;;;;;;29.35;5.38;;;24.70;99.90;;;;;;5114709;28;20050;-67
2023/10/21 00:46:16;;;;;;;31.33;5.05;;;24.70;99.90;;;;;;5113168;28;20058;-67
2023/10/21 00:49:20;;;;;;;39.25;6.13;;;24.60;99.90;;;;;;5113908;28;20042;-67
2023/10/21 00:52:25;;;;;;;38.13;6.55;;;24.60;99.90;;;;;;5113399;28;20480;-67
2023/10/21 00:55:29;;;;;;;39.45;6.05;;;24.60;99.90;;;;;;5114113;28;20046;-67
2023/10/21 00:58:35;;;;;;;31.35;6.03;;;24.70;99.90;;;;;;5114291;28;20164;-67
2023/10/21 01:01:39;;;;;;;37.55;6.22;;;24.60;99.90;;;;;;5113467;28;20042;-67
2023/10/21 01:04:43;;;;;;;44.60;6.93;;;24.60;99.90;;;;;;5113078;28;20538;-66
2023/10/21 01:07:47;;;;;;;46.25;6.05;;;24.70;99.90;;;;;;5113030;28;20630;-67
2023/10/21 01:10:52;;;;;;;43.03;7.28;;;24.70;99.90;;;;;;5113176;28;20050;-67
2023/10/21 01:13:56;;;;;;;37.63;6.25;;;24.60;99.90;;;;;;5113777;28;20502;-67
2023/10/21 01:17:00;;;;;;;34.25;6.32;;;24.60;99.90;;;;;;5112826;28;20059;-67
2023/10/21 01:20:06;;;;;;;35.60;6.05;;;24.60;99.90;;;;;;5113701;28;20047;-67
2023/10/21 01:23:15;;;;;;;31.88;5.28;;;24.60;99.90;;;;;;5113612;28;20047;-68
2023/10/21 01:26:19;;;;;;;35.05;5.75;;;24.50;99.90;;;;;;5112383;28;20051;-67
2023/10/21 01:29:23;;;;;;;44.40;6.88;;;24.50;99.90;;;;;;5113380;28;20050;-68
2023/10/21 01:32:27;;;;;;;44.25;7.72;;;24.50;99.90;;;;;;5113495;28;20046;-68
2023/10/21 01:35:31;;;;;;;42.38;6.25;;;24.40;99.90;;;;;;5113161;28;20047;-67
2023/10/21 01:38:35;;;;;;;40.67;6.03;;;24.40;99.90;;;;;;5113086;28;20037;-68
2023/10/21 01:41:39;;;;;;;36.78;5.93;;;24.40;99.90;;;;;;5112226;28;20421;-68
2023/10/21 01:44:42;;;;;;;37.10;5.82;;;24.30;99.90;;;;;;5112059;28;20043;-68
2023/10/21 01:47:46;;;;;;;42.63;6.55;;;24.20;99.90;;;;;;5112092;28;20051;-67
2023/10/21 01:51:04;;;;;;;42.88;5.55;;;24.30;99.90;;;;;;5113207;28;20046;-66
2023/10/21 01:54:08;;;;;;;46.80;6.80;;;24.30;99.90;;;;;;5112821;28;20138;-68
2023/10/21 01:57:12;;;;;;;38.05;5.88;;;24.30;99.90;;;;;;5112890;28;20050;-68
2023/10/21 02:00:20;;;;;;;36.55;6.28;;;24.30;99.90;;;;;;5111917;28;20039;-67
2023/10/21 02:03:25;;;;;;;39.35;5.07;;;24.30;99.90;;;;;;5112771;28;20058;-68
2023/10/21 02:06:29;;;;;;;42.05;5.20;;;24.20;99.90;;;;;;5111877;28;20050;-67
2023/10/21 02:09:33;;;;;;;41.30;5.80;;;24.20;99.90;;;;;;5112764;28;20513;-68
2023/10/21 02:12:38;;;;;;;28.20;4.53;;;24.20;99.90;;;;;;5111769;28;20038;-66
2023/10/21 02:15:42;;;;;;;36.17;5.22;;;24.20;99.90;;;;;;5111707;28;20042;-67
2023/10/21 02:18:46;;;;;;;30.38;5.60;;;24.20;99.90;;;;;;5112523;28;20038;-67
2023/10/21 02:21:50;;;;;;;40.42;5.55;;;24.20;99.90;;;;;;5111916;28;20502;-67
2023/10/21 02:24:54;;;;;;;29.90;4.93;;;24.10;99.90;;;;;;5112656;28;20477;-67
2023/10/21 02:28:00;;;;;;;36.53;5.57;;;24.00;99.90;;;;;;5111343;28;20538;-67
2023/10/21 02:31:04;;;;;;;34.08;4.28;;;24.00;99.90;;;;;;5112268;28;20043;-67
2023/10/21 02:34:08;;;;;;;23.30;4.63;;;23.80;99.90;;;;;;5112411;28;20047;-67
2023/10/21 02:37:12;;;;;;;30.23;4.63;;;23.80;99.90;;;;;;5112224;28;20042;-67
2023/10/21 02:40:16;;;;;;;25.92;4.18;;;23.70;99.90;;;;;;5111213;28;20043;-67
2023/10/21 02:43:20;;;;;;;31.13;4.57;;;23.60;99.90;;;;;;5111970;28;20042;-67
2023/10/21 02:46:24;;;;;;;26.02;4.50;;;23.60;99.90;;;;;;5111770;28;20066;-67
2023/10/21 02:49:28;;;;;;;33.08;4.90;;;23.70;99.90;;;;;;5111919;28;20427;-67
2023/10/21 02:52:40;;;;;;;27.33;4.88;;;23.70;99.90;;;;;;5111827;28;20058;-66
2023/10/21 02:55:44;;;;;;;73.82;24.50;;;23.70;99.90;;;;;;5111710;28;20035;-66
2023/10/21 02:58:48;;;;;;;57.65;19.63;;;23.70;99.90;;;;;;5110889;28;20058;-67
2023/10/21 03:01:51;;;;;;;57.08;15.60;;;23.70;99.90;;;;;;5111104;28;20422;-67
2023/10/21 03:04:55;;;;;;;48.75;15.00;;;23.70;99.90;;;;;;5110759;28;20046;-68
2023/10/21 03:07:59;;;;;;;44.40;13.50;;;23.70;99.90;;;;;;5111385;28;20054;-68
2023/10/21 03:11:04;;;;;;;33.80;8.95;;;23.70;99.90;;;;;;5109947;28;20035;-68
2023/10/21 03:14:08;;;;;;;35.05;7.38;;;23.80;99.90;;;;;;5111427;28;20050;-67
2023/10/21 03:17:14;;;;;;;35.70;5.78;;;23.70;99.90;;;;;;5111508;28;20046;-67
2023/10/21 03:20:17;;;;;;;33.42;5.20;;;23.80;99.90;;;;;;5111358;28;20526;-68
2023/10/21 03:23:21;;;;;;;24.00;4.55;;;23.70;99.90;;;;;;5111429;28;20055;-67
2023/10/21 03:26:25;;;;;;;26.33;4.63;;;23.80;99.90;;;;;;5110372;28;20042;-67
2023/10/21 03:29:31;;;;;;;33.55;6.15;;;23.70;99.90;;;;;;5111727;28;20074;-68
2023/10/21 03:32:36;;;;;;;26.60;4.53;;;23.70;99.90;;;;;;5111594;28;20046;-68
2023/10/21 03:35:40;;;;;;;30.55;4.63;;;23.70;99.90;;;;;;5111498;28;20059;-67
2023/10/21 03:38:44;;;;;;;29.40;4.90;;;23.70;99.90;;;;;;5111597;28;20038;-68
2023/10/21 03:41:49;;;;;;;31.60;5.78;;;23.70;99.90;;;;;;5111536;28;20490;-68
2023/10/21 03:44:53;;;;;;;22.08;5.72;;;23.60;99.90;;;;;;5111269;28;20039;-68
2023/10/21 03:47:57;;;;;;;26.42;5.60;;;23.60;99.90;;;;;;5110361;28;20046;-67
2023/10/21 03:51:05;;;;;;;29.05;6.30;;;23.50;99.90;;;;;;5111280;28;20495;-67
2023/10/21 03:54:10;;;;;;;31.60;5.95;;;23.60;99.90;;;;;;5111052;28;20050;-67
2023/10/21 03:57:14;;;;;;;36.60;6.40;;;23.60;99.90;;;;;;5111014;28;20498;-67
2023/10/21 04:00:18;;;;;;;27.20;5.07;;;23.50;99.90;;;;;;5110944;28;20047;-66
2023/10/21 04:03:28;;;;;;;26.15;5.50;;;23.50;99.90;;;;;;5110903;28;20047;-68
2023/10/21 04:06:32;;;;;;;24.27;5.25;;;23.50;99.90;;;;;;5110869;28;20055;-66
2023/10/21 04:09:36;;;;;;;34.55;5.57;;;23.50;99.90;;;;;;5111052;28;20608;-68
2023/10/21 04:12:40;;;;;;;32.85;6.20;;;23.50;99.90;;;;;;5111155;28;20046;-68
2023/10/21 04:15:44;;;;;;;31.05;5.57;;;23.40;99.90;;;;;;5111193;28;20058;-68
2023/10/21 04:18:48;;;;;;;28.60;5.03;;;23.40;99.90;;;;;;5110876;28;20043;-68
2023/10/21 04:21:52;;;;;;;27.38;5.45;;;23.30;99.90;;;;;;5112401;28;20042;-67
2023/10/21 04:24:56;;;;;;;30.63;6.50;;;23.40;99.90;;;;;;5114838;28;20084;-68
2023/10/21 04:28:01;;;;;;;36.38;6.53;;;23.30;99.90;;;;;;5114755;28;20058;-67
2023/10/21 04:31:04;;;;;;;31.20;5.28;;;23.30;99.90;;;;;;5114916;28;20039;-67
2023/10/21 04:34:09;;;;;;;37.13;5.88;;;23.30;99.90;;;;;;5114813;28;20070;-67
2023/10/21 04:37:13;;;;;;;36.17;6.90;;;23.20;99.90;;;;;;5114750;28;20050;-69
2023/10/21 04:40:17;;;;;;;39.05;5.75;;;23.20;99.90;;;;;;5114621;28;20042;-67
2023/10/21 04:43:21;;;;;;;41.00;7.80;;;23.20;99.90;;;;;;5114358;28;20043;-68
2023/10/21 04:46:25;;;;;;;39.28;8.63;;;23.20;99.90;;;;;;5114442;28;20043;-67
2023/10/21 04:49:29;;;;;;;28.02;5.47;;;23.00;99.90;;;;;;5114290;28;20051;-67
2023/10/21 04:52:33;;;;;;;29.38;6.15;;;22.80;99.90;;;;;;5114516;28;20047;-68
2023/10/21 04:55:37;;;;;;;31.67;6.40;;;22.70;99.90;;;;;;5114356;28;20494;-67
2023/10/21 04:58:41;;;;;;;30.35;5.65;;;22.30;99.90;;;;;;5114137;28;20046;-67
2023/10/21 05:01:45;;;;;;;32.53;7.18;;;22.20;99.90;;;;;;5114105;28;20058;-67
2023/10/21 05:04:52;;;;;;;38.90;7.53;;;22.10;99.90;;;;;;5113851;28;20058;-68
2023/10/21 05:07:59;;;;;;;31.48;6.47;;;22.10;99.90;;;;;;5113165;28;20051;-68
2023/10/21 05:11:03;;;;;;;34.13;7.43;;;21.90;99.90;;;;;;5113826;28;20043;-68
2023/10/21 05:14:07;;;;;;;34.83;6.90;;;21.90;99.90;;;;;;5113874;28;20039;-68
2023/10/21 05:17:11;;;;;;;38.03;6.28;;;21.90;99.90;;;;;;5113629;28;20039;-68
2023/10/21 05:20:15;;;;;;;33.30;7.10;;;21.90;99.90;;;;;;5113845;28;20054;-68
2023/10/21 05:23:19;;;;;;;31.73;7.93;;;21.80;99.90;;;;;;5113760;28;20042;-67
2023/10/21 05:26:23;;;;;;;30.95;6.65;;;22.00;99.90;;;;;;5113660;28;20047;-67
2023/10/21 05:29:28;;;;;;;39.72;6.38;;;22.10;99.90;;;;;;5113724;28;20125;-66
2023/10/21 05:32:31;;;;;;;35.20;7.38;;;22.20;99.90;;;;;;5113397;28;20047;-67
2023/10/21 05:35:35;;;;;;;33.95;6.75;;;22.20;99.90;;;;;;5113533;28;20048;-67
2023/10/21 05:38:39;;;;;;;36.25;7.55;;;22.30;99.90;;;;;;5113434;28;20039;-67
2023/10/21 05:41:43;;;;;;;36.75;6.90;;;21.90;99.90;;;;;;5113487;28;20047;-67
2023/10/21 05:44:47;;;;;;;33.33;7.15;;;21.90;99.90;;;;;;5112960;28;20478;-67
2023/10/21 05:47:51;;;;;;;34.10;6.80;;;21.90;99.90;;;;;;5112811;28;20038;-67
2023/10/21 05:51:02;;;;;;;32.20;6.07;;;21.90;99.90;;;;;;5113178;28;20403;-67
2023/10/21 05:54:06;;;;;;;30.40;5.95;;;21.90;99.90;;;;;;5113124;28;20043;-67
2023/10/21 05:57:10;;;;;;;30.65;5.78;;;22.00;99.90;;;;;;5113229;28;20043;-67
2023/10/21 06:00:14;;;;;;;27.88;5.15;;;21.90;99.90;;;;;;5113150;28;20066;-67
2023/10/21 06:03:18;;;;;;;22.23;5.03;;;21.90;99.90;;;;;;5113281;28;20035;-67
2023/10/21 06:06:22;;;;;;;25.38;4.15;;;21.90;99.90;;;;;;5113058;28;20050;-67
2023/10/21 06:09:27;;;;;;;12.70;3.25;;;21.90;99.90;;;;;;5112913;28;20074;-67
2023/10/21 06:12:32;;;;;;;11.35;3.38;;;21.70;99.90;;;;;;5112974;28;20498;-67
2023/10/21 06:15:38;;;;;;;11.45;2.25;;;21.70;99.90;;;;;;5111920;28;20051;-67
2023/10/21 06:18:41;;;;;;;11.65;2.55;;;21.50;99.90;;;;;;5112631;28;20039;-68
2023/10/21 06:21:45;;;;;;;5.28;1.42;;;21.30;99.90;;;;;;5112459;28;20054;-67
2023/10/21 06:24:49;;;;;;;11.63;1.52;;;21.40;99.90;;;;;;5112347;28;20039;-68
2023/10/21 06:27:53;;;;;;;6.45;1.70;;;21.30;99.90;;;;;;5112430;28;20201;-65
2023/10/21 06:31:01;;;;;;;6.18;1.42;;;21.00;99.90;;;;;;5112520;28;20046;-66
2023/10/21 06:34:05;;;;;;;9.15;2.28;;;20.80;99.90;;;;;;5112040;28;20050;-67
2023/10/21 06:37:09;;;;;;;14.13;3.05;;;20.80;99.90;;;;;;5112160;28;20047;-67
2023/10/21 06:40:13;;;;;;;11.48;2.88;;;20.30;99.90;;;;;;5112353;28;20050;-67
2023/10/21 06:43:17;;;;;;;13.73;3.58;;;;;;;;;;5112179;28;20042;-66
2023/10/21 06:46:24;;;;;;;13.88;2.60;;;20.20;99.90;;;;;;5111796;28;20043;-65
2023/10/21 06:49:28;;;;;;;12.68;2.95;;;20.20;99.90;;;;;;5111797;28;20055;-66
2023/10/21 06:52:32;;;;;;;9.45;2.45;;;21.40;99.90;;;;;;5112107;28;20042;-66
2023/10/21 06:55:44;;;;;;;12.07;3.20;;;19.20;99.90;;;;;;5111917;28;20050;-66
2023/10/21 06:58:48;;;;;;;12.65;2.78;;;20.50;99.90;;;;;;5111944;28;20050;-66
2023/10/21 07:01:53;;;;;;;11.07;2.78;;;20.40;99.90;;;;;;5111081;28;20039;-66
2023/10/21 07:04:57;;;;;;;9.65;2.75;;;20.80;99.90;;;;;;5111389;28;20399;-67
2023/10/21 07:08:01;;;;;;;10.38;2.50;;;20.00;99.90;;;;;;5111316;28;20047;-66
2023/10/21 07:11:06;;;;;;;11.63;3.00;;;20.00;99.90;;;;;;5111485;28;20054;-66
2023/10/21 07:14:12;;;;;;;15.85;2.92;;;20.10;99.90;;;;;;5111648;28;20035;-66
2023/10/21 07:17:16;;;;;;;11.85;3.13;;;;;;;;;;5111432;28;20050;-65
2023/10/21 07:20:20;;;;;;;12.38;3.08;;;20.30;99.90;;;;;;5111567;28;20032;-64
2023/10/21 07:23:24;;;;;;;10.30;2.80;;;20.20;99.90;;;;;;5111133;28;20042;-65
2023/10/21 07:26:29;;;;;;;11.68;2.55;;;20.20;99.90;;;;;;5111286;28;20560;-65
2023/10/21 07:29:33;;;;;;;14.73;3.55;;;20.40;99.90;;;;;;5111194;28;20407;-65
2023/10/21 07:32:37;;;;;;;13.43;2.45;;;20.20;99.90;;;;;;5111482;28;20047;-66
2023/10/21 07:35:42;;;;;;;15.18;3.08;;;20.50;99.90;;;;;;5109961;28;20054;-66
2023/10/21 07:38:46;;;;;;;10.30;2.40;;;20.20;99.90;;;;;;5111154;28;20046;-65
2023/10/21 07:41:50;;;;;;;13.48;3.13;;;20.70;99.90;;;;;;5111445;28;20066;-65
2023/10/21 07:44:56;;;;;;;13.40;4.00;;;23.60;99.90;;;;;;5111149;28;20046;-65
2023/10/21 07:48:02;;;;;;;12.82;4.13;;;20.70;99.90;;;;;;5110990;28;20494;-65
2023/10/21 07:51:06;;;;;;;10.82;2.50;;;20.80;99.90;;;;;;5111121;28;20058;-65
2023/10/21 07:54:10;;;;;;;11.75;3.20;;;20.70;99.90;;;;;;5111279;28;20510;-65
2023/10/21 07:57:14;;;;;;;13.23;3.00;;;20.90;99.90;;;;;;5113220;28;20047;-65
2023/10/21 08:00:18;;;;;;;12.77;3.22;;;20.60;99.90;;;;;;5115404;28;20608;-65
2023/10/21 08:03:22;;;;;;;11.07;2.88;;;20.60;99.90;;;;;;5115030;28;20510;-65
2023/10/21 08:06:27;;;;;;;19.38;4.63;;;21.10;99.90;;;;;;5114776;28;20071;-66
2023/10/21 08:09:31;;;;;;;12.73;3.10;;;20.50;99.90;;;;;;5114764;28;20063;-65
2023/10/21 08:12:35;;;;;;;13.88;3.35;;;20.50;99.90;;;;;;5115156;28;20133;-65
2023/10/21 08:15:39;;;;;;;14.40;3.40;;;20.50;99.90;;;;;;5114679;28;20050;-66
2023/10/21 08:18:43;;;;;;;7.38;2.40;;;21.00;99.90;;;;;;5115027;28;20043;-66
2023/10/21 08:21:47;;;;;;;13.82;2.65;;;20.30;99.90;;;;;;5114196;28;20371;-67
2023/10/21 08:24:51;;;;;;;11.93;3.40;;;20.40;99.90;;;;;;5114679;28;20047;-67
2023/10/21 08:27:55;;;;;;;14.32;3.35;;;20.40;99.90;;;;;;5114306;28;20046;-66
2023/10/21 08:30:58;;;;;;;16.70;3.85;;;20.40;99.90;;;;;;5114008;28;20674;-67
2023/10/21 08:34:03;;;;;;;12.15;3.88;;;20.40;99.90;;;;;;5114173;28;20043;-66
2023/10/21 08:37:07;;;;;;;13.00;3.65;;;20.40;99.90;;;;;;5113959;28;20054;-65
2023/10/21 08:40:12;;;;;;;11.00;3.90;;;20.50;99.90;;;;;;5113152;28;20050;-66
2023/10/21 08:43:17;;;;;;;12.05;3.65;;;20.40;99.90;;;;;;5112653;28;20042;-66
2023/10/21 08:46:23;;;;;;;16.05;4.07;;;21.30;99.90;;;;;;5112779;28;20043;-67
2023/10/21 08:49:27;;;;;;;14.80;3.42;;;20.20;99.90;;;;;;5113491;28;20415;-67
2023/10/21 08:52:33;;;;;;;15.75;3.90;;;20.00;99.90;;;;;;5113507;28;20039;-67
2023/10/21 08:55:41;;;;;;;16.83;4.45;;;19.90;99.90;;;;;;5113366;28;20051;-66
2023/10/21 08:58:48;;;;;;;18.88;4.97;;;20.20;99.90;;;;;;5114233;28;20486;-66
2023/10/21 09:01:52;;;;;;;20.40;4.50;;;20.00;99.90;;;;;;5113961;28;20047;-66
2023/10/21 09:04:56;;;;;;;22.38;6.10;;;20.10;99.90;;;;;;5113815;28;20067;-67
2023/10/21 09:08:00;;;;;;;19.63;4.35;;;20.70;99.90;;;;;;5112682;28;20046;-66
2023/10/21 09:11:07;;;;;;;17.25;3.92;;;19.90;99.90;;;;;;5113952;28;20059;-65
2023/10/21 09:14:11;;;;;;;13.30;3.80;;;21.10;99.90;;;;;;5113865;28;20035;-65
2023/10/21 09:17:15;;;;;;;12.45;2.80;;;;;;;;;;5113873;28;20054;-65
2023/10/21 09:20:21;;;;;;;15.65;3.65;;;;;;;;;;5113569;28;20047;-67
2023/10/21 09:23:26;;;;;;;14.23;3.50;;;20.90;99.90;;;;;;5114046;28;20491;-68
2023/10/21 09:26:31;;;;;;;12.18;3.53;;;;;;;;;;5113206;28;20047;-66
2023/10/21 09:29:37;;;;;;;11.13;4.18;;;20.00;99.90;;;;;;5110858;28;20490;-67
2023/10/21 09:32:46;;;;;;;13.88;3.60;;;19.90;99.90;;;;;;5110849;28;20063;-68
2023/10/21 09:36:04;;;;;;;11.70;3.42;;;20.20;99.90;;;;;;5110904;28;20059;-69
2023/10/21 09:39:09;;;;;;;15.77;4.57;;;;;;;;;;5111782;28;20050;-67
2023/10/21 09:42:15;;;;;;;17.42;4.05;;;19.60;99.90;;;;;;5111661;28;20043;-67
2023/10/21 09:45:21;;;;;;;15.48;3.53;;;19.40;99.90;;;;;;5112953;28;20039;-67
2023/10/21 09:48:28;;;;;;;12.30;3.88;;;19.30;99.90;;;;;;5113250;28;20059;-68
2023/10/21 09:51:36;;;;;;;12.77;3.88;;;19.30;99.90;;;;;;5113406;28;20105;-68
2023/10/21 09:54:45;;;;;;;9.68;3.70;;;19.40;99.90;;;;;;5113100;28;20051;-67
2023/10/21 09:57:49;;;;;;;13.88;3.63;;;;;;;;;;5113396;28;20394;-68
2023/10/21 10:00:54;;;;;;;13.25;3.30;;;19.30;99.90;;;;;;5112922;28;20047;-67
2023/10/21 10:04:01;;;;;;;11.80;4.28;;;19.40;99.90;;;;;;5112022;28;20042;-68
2023/10/21 10:07:09;;;;;;;10.13;3.13;;;19.40;99.90;;;;;;5112694;28;20038;-68
2023/10/21 10:10:16;;;;;;;7.57;2.42;;;18.50;99.90;;;;;;5112841;28;20062;-68
2023/10/21 10:13:21;;;;;;;9.20;2.35;;;;;;;;;;5111550;28;20538;-67
2023/10/21 10:16:27;;;;;;;8.70;2.13;;;;;;;;;;5112406;28;20483;-67
2023/10/21 10:19:41;;;;;;;5.18;1.95;;;18.50;99.90;;;;;;5112050;28;20023;-68
2023/10/21 10:22:51;;;;;;;4.57;1.75;;;19.20;99.90;;;;;;5112376;28;20048;-67
2023/10/21 10:25:57;;;;;;;5.80;1.85;;;;;;;;;;5112414;28;20043;-68
2023/10/21 10:29:18;;;;;;;8.40;2.00;;;19.10;99.90;;;;;;5112326;28;20047;-68
2023/10/21 10:32:30;;;;;;;8.87;2.07;;;;;;;;;;5112356;28;20046;-67
2023/10/21 10:35:37;;;;;;;10.23;1.90;;;19.20;99.90;;;;;;5112114;28;20032;-68
2023/10/21 10:38:44;;;;;;;7.15;2.65;;;;;;;;;;5112160;28;20035;-68
2023/10/21 10:41:49;;;;;;;6.60;2.45;;;;;;;;;;5112371;28;20035;-68
2023/10/21 10:44:55;;;;;;;9.02;2.78;;;20.10;99.90;;;;;;5112153;28;20028;-68
2023/10/21 10:48:01;;;;;;;6.97;1.85;;;19.30;99.90;;;;;;5112145;28;20042;-68
2023/10/21 10:54:42;;;;;;;7.45;2.67;;;21.30;99.90;;;;;;5099167;28;20506;-68
2023/10/21 10:57:47;;;;;;;6.90;2.13;;;19.50;99.90;;;;;;5111582;28;20050;-68
2023/10/21 11:00:52;;;;;;;8.07;2.67;;;18.20;99.90;;;;;;5112010;28;20643;-68
2023/10/21 11:04:01;;;;;;;6.53;1.83;;;19.80;99.90;;;;;;5110792;28;20063;-67
2023/10/21 11:07:09;;;;;;;8.15;1.75;;;;;;;;;;5111684;28;20031;-68
2023/10/21 11:10:21;;;;;;;6.90;1.33;;;19.90;99.90;;;;;;5111474;28;20044;-68
2023/10/21 11:13:28;;;;;;;7.03;1.60;;;;;;;;;;5111570;28;20051;-67
2023/10/21 11:16:32;;;;;;;5.43;1.80;;;;;;;;;;5111407;28;20040;-67
2023/10/21 11:19:36;;;;;;;10.65;4.10;;;;;;;;;;5111688;28;20368;-67
2023/10/21 11:22:41;;;;;;;7.22;1.88;;;20.20;99.90;;;;;;5111710;28;20031;-67
2023/10/21 11:25:49;;;;;;;11.27;2.55;;;21.80;99.90;;;;;;5111190;28;20047;-68
2023/10/21 11:28:53;;;;;;;13.73;3.25;;;20.30;99.90;;;;;;5111634;28;20506;-68
2023/10/21 11:31:57;;;;;;;16.58;2.95;;;20.50;99.90;;;;;;5110899;28;20039;-67
2023/10/21 11:35:09;;;;;;;17.50;3.83;;;20.70;99.90;;;;;;5111162;28;20058;-68
2023/10/21 11:38:17;;;;;;;19.35;4.00;;;20.70;99.90;;;;;;5111273;28;20039;-68
2023/10/21 11:41:22;;;;;;;22.02;4.10;;;20.80;99.90;;;;;;5111604;28;20066;-68
2023/10/21 11:44:32;;;;;;;19.45;4.45;;;21.00;99.90;;;;;;5111573;28;20039;-68
2023/10/21 11:47:40;;;;;;;24.75;4.40;;;20.90;99.90;;;;;;5111678;28;20046;-68
2023/10/21 11:50:45;;;;;;;17.17;4.10;;;21.10;99.90;;;;;;5111229;28;20047;-68
2023/10/21 11:53:50;;;;;;;21.58;4.32;;;21.20;99.90;;;;;;5111329;28;20387;-68
2023/10/21 11:57:32;;;;;;;22.13;4.93;;;21.20;99.90;;;;;;5111393;28;20074;-67
2023/10/21 12:33:20;;;;;;;31.58;6.32;;;21.80;99.90;;;;;;5110830;28;20494;-67
2023/10/21 12:36:34;;;;;;;;;;;21.90;99.90;;;;;;5111446;28;20043;-68
2023/10/21 12:43:18;;;;;;;37.75;6.80;;;22.00;99.90;;;;;;5112795;28;20039;-68
2023/10/21 12:46:17;;;;;;;28.40;6.32;;;22.00;99.90;;;;;;5114666;28;20047;-69
2023/10/21 12:49:24;;;;;;;32.25;6.13;;;22.10;99.80;;;;;;5114299;28;20051;-67
2023/10/21 12:52:29;;;;;;;30.27;6.07;;;22.10;99.90;;;;;;5114710;28;20502;-67
2023/10/21 12:55:35;;;;;;;30.73;6.85;;;22.20;99.70;;;;;;5114255;28;20537;-68
2023/10/21 12:58:40;;;;;;;38.45;7.10;;;22.30;99.80;;;;;;5114606;28;20526;-68
2023/10/21 13:01:44;;;;;;;27.20;6.10;;;22.40;99.50;;;;;;5114076;28;20043;-66
2023/10/21 13:04:48;;;;;;;34.60;7.38;;;22.50;99.30;;;;;;5113991;28;20058;-67
2023/10/21 13:07:52;;;;;;;33.65;6.60;;;22.40;98.90;;;;;;5114172;28;20042;-67
2023/10/21 13:10:56;;;;;;;24.90;5.75;;;22.40;98.80;;;;;;5114357;28;20074;-67
2023/10/21 13:14:00;;;;;;;29.33;5.65;;;22.50;98.80;;;;;;5113983;28;20050;-67
2023/10/21 13:17:12;;;;;;;35.78;7.28;;;22.40;98.40;;;;;;5113228;28;20058;-67
2023/10/21 13:20:18;;;;;;;34.75;7.82;;;22.40;98.80;;;;;;5113756;28;20043;-65
2023/10/21 13:23:22;;;;;;;30.65;6.70;;;22.20;99.00;;;;;;5112084;28;20043;-67
2023/10/21 13:26:26;;;;;;;36.83;8.02;;;22.30;99.00;;;;;;5111859;28;20237;-65
2023/10/21 13:29:32;;;;;;;36.45;7.28;;;22.30;99.20;;;;;;5110441;28;20063;-66
2023/10/21 13:32:43;;;;;;;37.28;6.35;;;22.30;99.10;;;;;;5112054;28;20387;-65
2023/10/21 13:35:47;;;;;;;34.50;6.47;;;22.30;99.00;;;;;;5111930;28;20050;-66
2023/10/21 13:38:51;;;;;;;30.95;7.57;;;22.40;99.20;;;;;;5113675;28;20419;-66
2023/10/21 13:41:55;;;;;;;26.02;6.15;;;22.40;99.30;;;;;;5113243;28;20042;-66
2023/10/21 13:45:05;;;;;;;29.95;6.15;;;22.40;99.10;;;;;;5113585;28;20042;-66
2023/10/21 13:48:11;;;;;;;21.50;6.00;;;22.40;98.80;;;;;;5113288;28;20216;-67
2023/10/21 13:51:14;;;;;;;28.42;6.93;;;22.40;98.70;;;;;;5113275;28;20403;-66
2023/10/21 13:54:22;;;;;;;34.88;7.40;;;22.50;98.90;;;;;;5112466;28;20038;-66
2023/10/21 13:57:27;;;;;;;35.55;6.88;;;22.50;98.80;;;;;;5112555;28;20434;-66
2023/10/21 14:00:34;;;;;;;24.73;5.75;;;22.60;98.40;;;;;;5112823;28;20043;-66
2023/10/21 14:03:41;;;;;;;24.27;6.78;;;22.60;98.60;;;;;;5113039;28;20047;-67
2023/10/21 14:06:46;;;;;;;19.40;4.53;;;22.70;98.50;;;;;;5111923;28;20046;-66
2023/10/21 14:09:50;;;;;;;28.85;6.38;;;22.70;98.30;;;;;;5112684;28;20399;-66
2023/10/21 14:12:54;;;;;;;25.33;6.93;;;22.70;97.80;;;;;;5112890;28;20039;-66
2023/10/21 14:15:59;;;;;;;28.70;5.13;;;22.80;97.60;;;;;;5112603;28;20046;-67
2023/10/21 14:19:03;;;;;;;27.38;6.40;;;22.70;97.10;;;;;;5111688;28;20043;-67
2023/10/21 14:22:09;;;;;;;34.75;5.95;;;22.70;96.90;;;;;;5112286;28;20399;-67
2023/10/21 14:25:14;;;;;;;23.42;5.15;;;22.70;97.10;;;;;;5112522;28;20050;-66
2023/10/21 14:28:21;;;;;;;37.33;6.30;;;22.60;96.90;;;;;;5112284;28;20038;-67
2023/10/21 14:31:31;;;;;;;35.72;6.32;;;22.60;97.10;;;;;;5112548;28;20058;-67
2023/10/21 14:34:35;;;;;;;26.63;6.32;;;22.60;97.10;;;;;;5112392;28;20043;-65
2023/10/21 14:37:40;;;;;;;30.25;6.75;;;22.60;97.30;;;;;;5112333;28;20039;-66
2023/10/21 14:40:44;;;;;;;31.40;6.40;;;22.60;97.50;;;;;;5111889;28;20042;-66
2023/10/21 14:43:48;;;;;;;31.75;6.45;;;22.60;97.60;;;;;;5112001;28;20046;-66
2023/10/21 14:46:52;;;;;;;22.17;6.00;;;22.60;97.60;;;;;;5111922;28;20038;-66
2023/10/21 14:49:58;;;;;;;27.88;5.68;;;22.60;97.30;;;;;;5111689;28;20058;-66
2023/10/21 14:53:03;;;;;;;24.50;5.72;;;22.50;97.60;;;;;;5112024;28;20405;-66
2023/10/21 14:56:07;;;;;;;27.42;7.20;;;22.50;97.60;;;;;;5111906;28;20047;-66
2023/10/21 14:59:11;;;;;;;28.35;6.40;;;22.50;97.70;;;;;;5112197;28;20034;-66
2023/10/21 15:02:17;;;;;;;25.10;5.40;;;22.50;97.70;;;;;;5111597;28;20039;-66
2023/10/21 15:05:22;;;;;;;24.40;6.20;;;22.40;97.50;;;;;;5111218;28;20059;-65
2023/10/21 15:08:26;;;;;;;33.28;7.18;;;22.40;97.70;;;;;;5111667;28;20042;-65
2023/10/21 15:11:30;;;;;;;37.47;7.50;;;22.30;97.80;;;;;;5111562;28;20046;-66
2023/10/21 15:14:34;;;;;;;38.22;7.15;;;22.20;97.80;;;;;;5111664;28;20102;-66
2023/10/21 15:17:48;;;;;;;31.92;5.60;;;22.20;97.90;;;;;;5111953;28;20399;-66
2023/10/21 15:20:53;;;;;;;30.05;6.30;;;22.20;98.20;;;;;;5111678;28;20047;-66
2023/10/21 15:23:57;;;;;;;36.55;7.15;;;22.20;98.20;;;;;;5111218;28;20426;-66
2023/10/21 15:27:01;;;;;;;24.75;5.25;;;21.50;98.20;;;;;;5111370;28;20037;-66
2023/10/21 15:30:06;;;;;;;26.77;5.70;;;22.10;98.10;;;;;;5111199;28;20051;-67
2023/10/21 15:33:10;;;;;;;26.55;5.95;;;22.20;97.80;;;;;;5111352;28;20050;-67
2023/10/21 15:36:15;;;;;;;29.27;5.55;;;22.20;98.00;;;;;;5111555;28;20054;-66
2023/10/21 15:39:20;;;;;;;30.58;6.93;;;22.10;98.20;;;;;;5110292;28;20146;-66
2023/10/21 15:42:24;;;;;;;24.83;5.68;;;22.10;98.30;;;;;;5110394;28;20035;-66
2023/10/21 15:45:27;;;;;;;32.92;5.55;;;22.00;98.50;;;;;;5111491;28;20046;-66
2023/10/21 15:48:33;;;;;;;24.52;5.82;;;21.90;98.80;;;;;;5110171;28;20050;-67
2023/10/21 15:51:37;;;;;;;29.67;6.15;;;21.90;99.00;;;;;;5110631;28;20071;-66
2023/10/21 15:54:43;;;;;;;35.33;5.97;;;21.90;99.00;;;;;;5111110;28;20054;-67
2023/10/21 15:57:48;;;;;;;37.45;6.47;;;21.80;99.30;;;;;;5111018;28;20047;-67
2023/10/21 16:00:52;;;;;;;31.00;5.35;;;21.80;99.60;;;;;;5110947;28;20387;-67
2023/10/21 16:03:56;;;;;;;30.65;6.38;;;21.80;99.60;;;;;;5110798;28;20058;-66
2023/10/21 16:07:00;;;;;;;35.85;5.70;;;21.80;99.50;;;;;;5110967;28;20066;-66
2023/10/21 16:10:05;;;;;;;41.10;7.25;;;21.70;99.60;;;;;;5110990;28;20050;-67
2023/10/21 16:13:08;;;;;;;32.00;5.50;;;21.70;99.70;;;;;;5110865;28;20043;-67
2023/10/21 16:16:12;;;;;;;31.40;5.82;;;21.70;99.70;;;;;;5111050;28;20502;-67
2023/10/21 16:19:16;;;;;;;32.95;5.70;;;21.70;99.80;;;;;;5114580;28;20038;-67
2023/10/21 16:22:20;;;;;;;24.20;6.15;;;21.60;99.90;;;;;;5114996;28;20042;-66
2023/10/21 16:25:24;;;;;;;29.73;4.80;;;21.70;99.70;;;;;;5114689;28;20046;-67
2023/10/21 16:28:28;;;;;;;26.25;4.47;;;21.70;99.50;;;;;;5114937;28;20046;-67
2023/10/21 16:31:32;;;;;;;22.63;4.72;;;21.70;99.50;;;;;;5114594;28;20055;-66
2023/10/21 16:34:36;;;;;;;27.83;4.90;;;21.80;99.60;;;;;;5114628;28;20038;-67
2023/10/21 16:37:41;;;;;;;25.55;5.95;;;21.80;99.30;;;;;;5114560;28;20043;-66